Time;durP1;ratioP1;P1;durP2;ratioP2;P2;SDS_P1;SDS_P2;PMS_P1;PMS_P2;Temp;Humidity;BMP_temperature;BMP_pressure;BME280_temperature;BME280_humidity;BME280_pressure;Samples;Min_cycle;Max_cycle;Signal;HPM_P1;HPM_P2
2022/07/17 00:00:34;;;;;;;;;;;;;;;14.16;66.13;97634.17;110128;1247;59741;-72
2022/07/17 00:03:04;;;;;;;;;;;;;;;14.16;66.25;97635.73;110454;1244;70760;-70
2022/07/17 00:05:33;;;;;;;;;;;;;;;14.19;65.76;97630.03;110383;1244;68414;-72
2022/07/17 00:08:06;;;;;;;;;;;;;;;14.22;65.38;97627.45;110275;1244;68612;-72
2022/07/17 00:10:37;;;;;;;;;;;;;;;14.25;64.80;97622.60;110444;1244;59737;-74
2022/07/17 00:13:07;;;;;;;;;;;;;;;14.26;63.52;97624.12;110235;1247;59715;-73
2022/07/17 00:15:37;;;;;;;;;;;;;;;14.24;62.18;97623.31;110607;1244;71433;-73
2022/07/17 00:18:08;;;;;;;;;;;;;;;14.19;65.47;97627.54;110279;1246;68579;-72
2022/07/17 00:20:38;;;;;;;;;;;;;;;14.17;65.05;97630.85;110358;1244;68813;-75
2022/07/17 00:23:07;;;;;;;;;;;;;;;14.16;65.81;97635.02;110421;1244;59718;-72
2022/07/17 00:25:37;;;;;;;;;;;;;;;14.13;67.09;97635.55;110493;1244;59753;-74
2022/07/17 00:28:06;;;;;;;;;;;;;;;14.10;67.88;97634.98;110430;1244;71529;-71
2022/07/17 00:30:37;;;;;;;;;;;;;;;14.07;68.10;97639.12;110404;1244;68629;-73
2022/07/17 00:33:07;;;;;;;;;;;;;;;14.07;68.03;97639.61;110171;1247;69776;-73
2022/07/17 00:35:37;;;;;;;;;;;;;;;14.09;66.33;97641.70;110435;1245;59712;-72
2022/07/17 00:38:06;;;;;;;;;;;;;;;14.06;66.61;97639.67;110251;1247;59686;-71
2022/07/17 00:40:35;;;;;;;;;;;;;;;14.02;67.16;97639.69;110272;1246;71393;-74
2022/07/17 00:43:06;;;;;;;;;;;;;;;13.96;68.94;97643.31;110740;1243;67797;-74
2022/07/17 00:45:35;;;;;;;;;;;;;;;13.92;68.90;97643.47;110198;1246;69250;-72
2022/07/17 00:48:07;;;;;;;;;;;;;;;13.91;67.54;97642.64;110295;1245;59697;-72
2022/07/17 00:50:41;;;;;;;;;;;;;;;13.89;66.22;97638.26;110322;1244;59717;-72
2022/07/17 00:53:10;;;;;;;;;;;;;;;13.90;67.72;97643.98;110315;1244;70806;-73
2022/07/17 00:55:40;;;;;;;;;;;;;;;13.89;68.45;97643.57;110440;1244;68617;-72
2022/07/17 00:58:17;;;;;;;;;;;;;;;13.88;66.66;97644.34;110528;1244;68555;-72
2022/07/17 01:00:48;;;;;;;;;;;;;;;13.87;67.02;97648.10;110264;1245;59742;-74
2022/07/17 01:03:20;;;;;;;;;;;;;;;13.88;66.91;97645.20;110550;1244;59688;-72
2022/07/17 01:05:50;;;;;;;;;;;;;;;13.90;66.33;97638.37;110277;1246;70943;-73
2022/07/17 01:08:21;;;;;;;;;;;;;;;13.89;64.96;97636.06;110287;1244;67914;-73
2022/07/17 01:10:51;;;;;;;;;;;;;;;13.83;64.43;97639.30;110235;1247;69424;-73
2022/07/17 01:13:21;;;;;;;;;;;;;;;13.76;67.36;97648.27;110274;1244;59699;-73
2022/07/17 01:15:51;;;;;;;;;;;;;;;13.69;69.60;97649.39;110382;1244;59676;-73
2022/07/17 01:18:22;;;;;;;;;;;;;;;13.61;69.24;97651.41;110216;1247;71566;-73
2022/07/17 01:20:51;;;;;;;;;;;;;;;13.55;70.01;97653.87;110365;1245;68504;-73
2022/07/17 01:23:21;;;;;;;;;;;;;;;13.50;69.82;97656.76;110439;1244;68472;-74
2022/07/17 01:25:52;;;;;;;;;;;;;;;13.44;69.38;97657.00;110468;1244;59691;-72
2022/07/17 01:28:21;;;;;;;;;;;;;;;13.40;68.73;97651.57;110518;1244;59672;-73
2022/07/17 01:30:52;;;;;;;;;;;;;;;13.37;69.45;97655.01;110218;1247;71398;-73
2022/07/17 01:33:22;;;;;;;;;;;;;;;13.34;69.64;97656.81;110502;1244;68544;-73
2022/07/17 01:35:53;;;;;;;;;;;;;;;13.31;70.10;97657.04;110533;1244;69390;-73
2022/07/17 01:38:23;;;;;;;;;;;;;;;13.29;70.53;97657.04;110367;1244;59686;-73
2022/07/17 01:40:54;;;;;;;;;;;;;;;13.27;70.96;97660.20;110327;1244;59688;-74
2022/07/17 01:43:23;;;;;;;;;;;;;;;13.22;71.38;97659.98;110182;1247;71507;-75
2022/07/17 01:45:52;;;;;;;;;;;;;;;13.19;70.75;97660.58;110321;1244;67102;-74
2022/07/17 01:48:26;;;;;;;;;;;;;;;13.14;68.46;97657.98;110232;1245;67808;-74
2022/07/17 01:50:57;;;;;;;;;;;;;;;13.08;67.02;97657.96;110371;1244;59714;-74
2022/07/17 01:53:27;;;;;;;;;;;;;;;13.03;68.21;97655.54;110267;1247;59738;-72
2022/07/17 01:55:58;;;;;;;;;;;;;;;12.98;70.76;97660.52;110452;1244;71564;-73
2022/07/17 01:58:29;;;;;;;;;;;;;;;12.93;72.04;97663.54;110360;1244;67608;-74
2022/07/17 02:00:59;;;;;;;;;;;;;;;12.86;72.03;97660.72;110562;1244;68505;-73
2022/07/17 02:03:28;;;;;;;;;;;;;;;12.81;71.40;97656.79;110263;1244;60117;-74
2022/07/17 02:05:58;;;;;;;;;;;;;;;12.74;72.23;97657.98;110389;1243;59738;-73
2022/07/17 02:08:28;;;;;;;;;;;;;;;12.69;72.34;97659.25;110304;1247;70566;-74
2022/07/17 02:10:57;;;;;;;;;;;;;;;12.64;73.34;97658.45;110536;1244;67961;-74
2022/07/17 02:13:27;;;;;;;;;;;;;;;12.57;73.11;97653.85;110192;1247;68921;-75
2022/07/17 02:15:57;;;;;;;;;;;;;;;12.53;72.41;97651.20;110253;1247;59702;-73
2022/07/17 02:18:27;;;;;;;;;;;;;;;12.50;71.10;97648.48;110474;1244;59628;-73
2022/07/17 02:20:57;;;;;;;;;;;;;;;12.47;72.07;97647.48;110263;1247;71510;-73
2022/07/17 02:23:28;;;;;;;;;;;;;;;12.43;73.77;97647.40;110282;1247;68826;-72
2022/07/17 02:25:58;;;;;;;;;;;;;;;12.39;75.37;97648.08;110293;1247;68511;-73
2022/07/17 02:28:29;;;;;;;;;;;;;;;12.33;74.39;97644.00;110631;1244;60132;-73
2022/07/17 02:30:58;;;;;;;;;;;;;;;12.27;71.46;97639.10;110262;1245;59615;-73
2022/07/17 02:33:28;;;;;;;;;;;;;;;12.21;74.46;97642.48;110591;1244;71503;-72
2022/07/17 02:35:58;;;;;;;;;;;;;;;12.14;73.39;97649.99;110275;1245;68400;-73
2022/07/17 02:38:28;;;;;;;;;;;;;;;12.07;75.51;97660.66;110210;1247;68794;-73
2022/07/17 02:40:57;;;;;;;;;;;;;;;11.98;74.54;97667.92;110520;1244;59766;-74
2022/07/17 02:43:27;;;;;;;;;;;;;;;11.92;74.99;97675.05;110251;1245;59677;-73
2022/07/17 02:45:56;;;;;;;;;;;;;;;11.86;75.64;97673.60;110425;1244;70821;-74
2022/07/17 02:48:27;;;;;;;;;;;;;;;11.82;74.94;97671.73;110554;1244;68646;-73
2022/07/17 02:50:57;;;;;;;;;;;;;;;11.79;74.23;97679.16;110476;1244;68638;-73
2022/07/17 02:53:30;;;;;;;;;;;;;;;11.76;73.55;97672.02;110346;1247;59755;-73
2022/07/17 02:56:00;;;;;;;;;;;;;;;11.74;72.98;97666.40;110290;1244;59698;-73
2022/07/17 02:58:30;;;;;;;;;;;;;;;11.71;74.86;97668.52;110331;1242;71754;-73
2022/07/17 03:01:01;;;;;;;;;;;;;;;11.67;76.11;97676.30;110262;1244;67808;-72
2022/07/17 03:03:32;;;;;;;;;;;;;;;11.62;75.99;97677.22;110144;1244;69231;-75
2022/07/17 03:06:02;;;;;;;;;;;;;;;11.59;76.52;97678.30;110430;1244;59702;-73
2022/07/17 03:08:33;;;;;;;;;;;;;;;11.58;76.79;97681.20;110363;1244;59738;-73
2022/07/17 03:11:03;;;;;;;;;;;;;;;11.55;75.39;97679.27;110409;1244;70732;-73
2022/07/17 03:13:33;;;;;;;;;;;;;;;11.54;74.82;97689.52;110224;1244;67737;-72
2022/07/17 03:16:05;;;;;;;;;;;;;;;11.53;76.09;97692.55;110382;1245;69429;-73
2022/07/17 03:18:34;;;;;;;;;;;;;;;11.52;75.66;97691.40;110252;1247;59692;-72
2022/07/17 03:21:04;;;;;;;;;;;;;;;11.52;75.50;97694.85;110224;1245;59675;-73
2022/07/17 03:23:34;;;;;;;;;;;;;;;11.52;74.60;97691.56;110287;1244;71519;-72
2022/07/17 03:26:05;;;;;;;;;;;;;;;11.52;76.59;97698.71;110470;1244;68448;-72
2022/07/17 03:28:35;;;;;;;;;;;;;;;11.49;77.28;97700.85;110277;1245;68599;-72
2022/07/17 03:31:04;;;;;;;;;;;;;;;11.43;77.15;97703.03;110294;1247;59794;-73
2022/07/17 03:33:34;;;;;;;;;;;;;;;11.39;78.58;97705.73;110297;1247;59608;-73
2022/07/17 03:36:03;;;;;;;;;;;;;;;11.41;77.94;97704.90;110457;1244;71826;-74
2022/07/17 03:38:34;;;;;;;;;;;;;;;11.44;78.57;97704.02;110284;1247;68495;-74
2022/07/17 03:41:05;;;;;;;;;;;;;;;11.50;78.53;97704.63;110465;1244;68217;-74
2022/07/17 03:43:34;;;;;;;;;;;;;;;11.55;78.30;97707.42;110248;1247;59741;-73
2022/07/17 03:46:04;;;;;;;;;;;;;;;11.60;78.84;97707.20;110521;1244;59696;-73
2022/07/17 03:48:34;;;;;;;;;;;;;;;11.68;77.71;97707.14;110470;1244;70736;-73
2022/07/17 03:51:03;;;;;;;;;;;;;;;11.76;77.98;97711.45;110463;1245;67765;-72
2022/07/17 03:53:33;;;;;;;;;;;;;;;11.83;77.75;97708.53;110209;1247;69405;-73
2022/07/17 03:56:02;;;;;;;;;;;;;;;11.92;78.31;97711.84;110509;1244;59783;-73
2022/07/17 03:58:31;;;;;;;;;;;;;;;12.00;77.69;97713.95;110236;1244;59720;-73
2022/07/17 04:01:01;;;;;;;;;;;;;;;12.07;77.67;97711.99;110447;1245;71377;-73
2022/07/17 04:03:31;;;;;;;;;;;;;;;12.16;77.12;97718.48;110228;1247;68516;-75
2022/07/17 04:06:00;;;;;;;;;;;;;;;12.24;76.86;97722.80;110600;1244;68678;-72
2022/07/17 04:08:29;;;;;;;;;;;;;;;12.34;76.92;97726.05;110441;1245;59628;-71
2022/07/17 04:10:58;;;;;;;;;;;;;;;12.44;76.62;97728.33;110537;1244;59666;-74
2022/07/17 04:13:33;;;;;;;;;;;;;;;12.55;76.12;97726.42;110325;1244;71340;-75
2022/07/17 04:16:03;;;;;;;;;;;;;;;12.65;74.36;97726.86;110457;1244;68606;-75
2022/07/17 04:18:33;;;;;;;;;;;;;;;12.78;74.18;97729.71;110418;1245;69395;-75
2022/07/17 04:21:04;;;;;;;;;;;;;;;12.91;75.16;97735.73;110296;1247;59755;-72
2022/07/17 04:23:34;;;;;;;;;;;;;;;13.04;74.99;97735.28;110260;1247;59736;-74
2022/07/17 04:26:03;;;;;;;;;;;;;;;13.15;73.76;97735.05;110425;1244;70736;-73
2022/07/17 04:28:39;;;;;;;;;;;;;;;13.27;73.34;97740.15;110429;1245;68037;-74
2022/07/17 04:31:08;;;;;;;;;;;;;;;13.42;73.08;97738.42;110527;1244;69393;-73
2022/07/17 04:33:37;;;;;;;;;;;;;;;13.58;71.80;97737.67;110242;1244;59692;-73
2022/07/17 04:36:06;;;;;;;;;;;;;;;13.71;71.63;97744.66;110514;1245;59602;-72
2022/07/17 04:38:35;;;;;;;;;;;;;;;13.82;71.82;97751.17;110443;1245;71350;-72
2022/07/17 04:41:05;;;;;;;;;;;;;;;13.95;71.84;97753.66;110612;1244;67976;-71
2022/07/17 04:43:34;;;;;;;;;;;;;;;14.08;71.15;97754.34;110240;1247;69519;-71
2022/07/17 04:46:03;;;;;;;;;;;;;;;14.22;70.47;97758.27;110239;1244;59742;-74
2022/07/17 04:48:32;;;;;;;;;;;;;;;14.35;69.44;97757.52;110175;1250;59749;-74
2022/07/17 04:51:01;;;;;;;;;;;;;;;14.49;69.17;97763.26;110408;1245;70979;-73
2022/07/17 04:53:30;;;;;;;;;;;;;;;14.60;68.66;97758.29;110518;1244;67989;-71
2022/07/17 04:55:59;;;;;;;;;;;;;;;14.71;68.43;97761.55;110395;1245;68504;-72
2022/07/17 04:58:29;;;;;;;;;;;;;;;14.77;66.73;97764.73;110293;1247;59752;-74
2022/07/17 05:00:59;;;;;;;;;;;;;;;14.95;65.99;97764.60;110407;1244;59666;-73
2022/07/17 05:03:28;;;;;;;;;;;;;;;15.20;65.01;97765.14;110456;1245;71130;-72
2022/07/17 05:05:57;;;;;;;;;;;;;;;15.43;64.29;97772.75;110270;1247;68514;-72
2022/07/17 05:08:26;;;;;;;;;;;;;;;15.68;63.98;97769.35;110224;1247;68494;-72
2022/07/17 05:10:54;;;;;;;;;;;;;;;15.97;62.30;97775.59;110229;1247;59686;-72
2022/07/17 05:13:23;;;;;;;;;;;;;;;16.31;60.10;97779.27;110485;1244;59751;-72
2022/07/17 05:15:52;;;;;;;;;;;;;;;16.71;61.26;97774.95;110482;1244;71644;-73
2022/07/17 05:18:21;;;;;;;;;;;;;;;17.20;60.27;97778.12;110157;1247;67837;-72
2022/07/17 05:20:50;;;;;;;;;;;;;;;17.69;58.70;97779.39;110505;1245;69592;-72
2022/07/17 05:23:19;;;;;;;;;;;;;;;18.27;56.44;97780.73;110298;1247;59747;-71
2022/07/17 05:25:48;;;;;;;;;;;;;;;18.78;54.38;97780.07;110247;1245;59761;-71
2022/07/17 05:28:16;;;;;;;;;;;;;;;19.24;52.83;97774.73;110449;1244;71562;-72
2022/07/17 05:30:45;;;;;;;;;;;;;;;19.48;50.56;97775.20;110354;1244;68622;-74
2022/07/17 05:33:14;;;;;;;;;;;;;;;19.65;49.13;97776.90;110195;1245;69445;-73
2022/07/17 05:35:43;;;;;;;;;;;;;;;19.74;48.94;97777.49;110425;1244;59751;-71
2022/07/17 05:38:12;;;;;;;;;;;;;;;19.87;48.75;97780.23;110452;1244;59760;-70
2022/07/17 05:40:42;;;;;;;;;;;;;;;19.86;47.78;97773.98;110206;1247;71331;-70
2022/07/17 05:43:11;;;;;;;;;;;;;;;19.86;48.19;97778.70;110170;1247;68545;-71
2022/07/17 05:45:40;;;;;;;;;;;;;;;19.81;47.68;97775.52;110546;1244;69581;-69
2022/07/17 05:48:09;;;;;;;;;;;;;;;19.75;48.13;97779.72;110401;1244;59741;-69
2022/07/17 05:50:38;;;;;;;;;;;;;;;19.62;47.92;97776.84;110190;1247;59755;-72
2022/07/17 05:53:07;;;;;;;;;;;;;;;19.48;47.61;97775.95;110401;1245;71780;-72
2022/07/17 05:55:36;;;;;;;;;;;;;;;19.39;48.20;97771.77;110416;1247;68576;-72
2022/07/17 05:58:05;;;;;;;;;;;;;;;19.39;48.61;97775.30;110170;1247;69461;-70
2022/07/17 06:00:34;;;;;;;;;;;;;;;19.41;48.36;97775.09;110444;1245;59706;-70
2022/07/17 06:03:04;;;;;;;;;;;;;;;19.42;48.44;97776.23;110580;1244;59680;-71
2022/07/17 06:05:33;;;;;;;;;;;;;;;19.49;48.47;97779.38;110224;1247;71404;-71
2022/07/17 06:08:02;;;;;;;;;;;;;;;19.59;48.32;97786.47;110289;1245;67723;-71
2022/07/17 06:10:31;;;;;;;;;;;;;;;19.75;48.33;97786.23;110547;1247;68467;-72
2022/07/17 06:12:59;;;;;;;;;;;;;;;19.91;47.42;97787.07;110341;1245;59670;-72
2022/07/17 06:15:28;;;;;;;;;;;;;;;20.06;46.88;97788.44;110564;1244;59601;-73
2022/07/17 06:18:01;;;;;;;;;;;;;;;20.27;46.41;97792.36;110267;1247;71603;-74
2022/07/17 06:20:30;;;;;;;;;;;;;;;20.52;45.92;97796.80;110212;1246;67799;-73
2022/07/17 06:22:59;;;;;;;;;;;;;;;20.84;45.58;97799.64;110376;1247;69472;-73
2022/07/17 06:25:28;;;;;;;;;;;;;;;21.16;44.59;97796.29;110365;1247;59742;-74
2022/07/17 06:27:57;;;;;;;;;;;;;;;21.50;44.16;97791.11;110510;1245;59719;-71
2022/07/17 06:30:26;;;;;;;;;;;;;;;21.90;43.50;97794.34;110293;1245;71100;-74
2022/07/17 06:32:54;;;;;;;;;;;;;;;22.15;42.62;97793.51;110626;1245;68644;-72
2022/07/17 06:35:25;;;;;;;;;;;;;;;22.49;42.48;97795.45;110493;1245;68486;-73
2022/07/17 06:37:53;;;;;;;;;;;;;;;22.83;41.73;97795.41;110528;1245;59672;-73
2022/07/17 06:40:22;;;;;;;;;;;;;;;23.07;40.54;97792.77;110543;1245;59684;-74
2022/07/17 06:42:51;;;;;;;;;;;;;;;23.24;39.73;97796.98;110263;1244;71461;-73
2022/07/17 06:45:20;;;;;;;;;;;;;;;23.39;39.47;97797.65;110585;1245;68611;-73
2022/07/17 06:47:49;;;;;;;;;;;;;;;23.69;39.71;97798.54;110519;1246;68593;-72
2022/07/17 06:50:18;;;;;;;;;;;;;;;23.95;38.49;97805.73;110282;1247;59726;-71
2022/07/17 06:52:46;;;;;;;;;;;;;;;24.07;37.43;97807.73;110217;1247;59691;-73
2022/07/17 06:55:15;;;;;;;;;;;;;;;24.27;38.58;97810.13;110198;1244;71656;-72
2022/07/17 06:57:44;;;;;;;;;;;;;;;24.61;38.23;97810.96;110536;1246;68066;-73
2022/07/17 07:00:15;;;;;;;;;;;;;;;24.89;36.49;97810.45;110255;1247;69461;-73
2022/07/17 07:02:44;;;;;;;;;;;;;;;25.07;35.99;97815.05;110278;1245;59751;-72
2022/07/17 07:05:12;;;;;;;;;;;;;;;24.96;35.59;97812.80;110510;1244;59644;-73
2022/07/17 07:07:41;;;;;;;;;;;;;;;25.03;35.92;97812.83;110390;1247;71552;-73
2022/07/17 07:10:10;;;;;;;;;;;;;;;25.25;35.93;97813.42;110329;1247;67929;-72
2022/07/17 07:12:39;;;;;;;;;;;;;;;25.15;35.11;97819.84;110479;1244;69132;-73
2022/07/17 07:15:08;;;;;;;;;;;;;;;25.51;34.92;97815.08;110516;1244;59668;-72
2022/07/17 07:17:41;;;;;;;;;;;;;;;25.53;35.17;97817.52;110181;1247;59653;-72
2022/07/17 07:20:11;;;;;;;;;;;;;;;25.63;34.44;97817.49;110347;1244;70971;-72
2022/07/17 07:22:40;;;;;;;;;;;;;;;25.68;34.82;97814.05;110359;1247;68564;-71
2022/07/17 07:25:10;;;;;;;;;;;;;;;25.73;35.11;97809.58;110348;1247;69512;-72
2022/07/17 07:27:39;;;;;;;;;;;;;;;25.80;34.55;97810.65;110312;1245;59795;-72
2022/07/17 07:30:09;;;;;;;;;;;;;;;26.07;34.02;97816.46;110476;1247;59702;-72
2022/07/17 07:32:39;;;;;;;;;;;;;;;26.06;33.92;97813.45;110298;1247;71531;-73
2022/07/17 07:35:10;;;;;;;;;;;;;;;26.28;33.82;97817.82;110324;1247;68324;-73
2022/07/17 07:37:39;;;;;;;;;;;;;;;26.56;33.27;97818.88;110333;1246;69492;-73
2022/07/17 07:40:08;;;;;;;;;;;;;;;26.61;32.87;97818.31;109767;1247;592809;-72
2022/07/17 07:42:37;;;;;;;;;;;;;;;26.76;32.69;97822.00;110535;1247;59728;-74
2022/07/17 07:45:07;;;;;;;;;;;;;;;26.93;32.69;97825.80;110506;1247;71771;-71
2022/07/17 07:47:43;;;;;;;;;;;;;;;26.90;32.34;97827.08;110119;1248;68129;-73
2022/07/17 07:50:12;;;;;;;;;;;;;;;26.88;32.15;97827.00;110580;1247;69613;-73
2022/07/17 07:52:41;;;;;;;;;;;;;;;27.05;32.05;97831.43;110207;1247;59739;-72
2022/07/17 07:55:11;;;;;;;;;;;;;;;27.15;31.25;97830.30;110433;1247;59767;-72
2022/07/17 07:57:48;;;;;;;;;;;;;;;27.23;31.67;97833.64;110223;1247;71532;-72
2022/07/17 08:00:17;;;;;;;;;;;;;;;27.30;31.05;97831.58;110350;1247;67853;-72
2022/07/17 08:02:46;;;;;;;;;;;;;;;27.15;30.37;97833.67;110353;1247;68801;-71
2022/07/17 08:05:15;;;;;;;;;;;;;;;27.20;30.25;97834.59;110507;1246;60183;-71
2022/07/17 08:07:44;;;;;;;;;;;;;;;27.38;29.99;97838.59;110470;1245;59802;-71
2022/07/17 08:10:13;;;;;;;;;;;;;;;27.31;30.12;97841.98;110417;1247;71526;-74
2022/07/17 08:12:41;;;;;;;;;;;;;;;27.27;30.79;97843.94;110165;1248;68599;-73
2022/07/17 08:15:15;;;;;;;;;;;;;;;27.77;30.76;97842.37;110362;1247;69461;-73
2022/07/17 08:17:44;;;;;;;;;;;;;;;27.96;30.46;97843.73;110183;1247;59718;-73
2022/07/17 08:20:14;;;;;;;;;;;;;;;28.23;29.90;97838.17;110184;1248;59673;-74
2022/07/17 08:22:44;;;;;;;;;;;;;;;28.45;29.80;97844.61;110476;1245;70787;-71
2022/07/17 08:25:33;;;;;;;;;;;;;;;28.32;28.98;97843.52;110408;1247;68711;-72
2022/07/17 08:28:05;;;;;;;;;;;;;;;28.33;29.38;97846.33;110585;1244;68695;-72
2022/07/17 08:30:34;;;;;;;;;;;;;;;28.09;29.14;97850.27;110266;1248;59764;-71
2022/07/17 08:33:07;;;;;;;;;;;;;;;27.45;28.52;97846.52;110310;1247;59703;-72
2022/07/17 08:35:36;;;;;;;;;;;;;;;27.24;28.83;97854.45;110245;1247;70769;-73
2022/07/17 08:38:06;;;;;;;;;;;;;;;27.29;27.47;97850.44;110307;1247;68397;-73
2022/07/17 08:40:36;;;;;;;;;;;;;;;27.37;27.04;97847.17;110216;1246;67847;-73
2022/07/17 08:43:06;;;;;;;;;;;;;;;27.52;27.69;97849.05;110376;1247;59697;-71
2022/07/17 08:45:35;;;;;;;;;;;;;;;27.80;27.42;97853.23;110353;1247;59742;-75
2022/07/17 08:48:12;;;;;;;;;;;;;;;27.89;27.99;97859.83;110262;1248;71589;-73
2022/07/17 08:50:41;;;;;;;;;;;;;;;27.25;27.21;97858.76;110414;1246;67801;-73
2022/07/17 08:53:10;;;;;;;;;;;;;;;26.60;27.99;97862.02;110209;1247;70119;-72
2022/07/17 08:55:40;;;;;;;;;;;;;;;26.56;28.48;97861.33;110241;1247;59696;-73
2022/07/17 08:58:14;;;;;;;;;;;;;;;26.77;27.96;97864.91;110504;1247;59669;-73
2022/07/17 09:00:44;;;;;;;;;;;;;;;27.07;28.19;97865.27;110482;1245;71828;-72
2022/07/17 09:03:14;;;;;;;;;;;;;;;27.26;27.01;97868.05;110144;1248;68022;-71
2022/07/17 09:05:44;;;;;;;;;;;;;;;27.62;26.66;97873.09;110564;1246;67674;-73
2022/07/17 09:08:18;;;;;;;;;;;;;;;27.71;25.72;97873.61;110593;1245;60037;-73
2022/07/17 09:10:48;;;;;;;;;;;;;;;27.86;26.54;97867.23;110248;1247;60064;-71
2022/07/17 09:13:22;;;;;;;;;;;;;;;28.27;25.32;97871.98;110441;1247;71556;-72
2022/07/17 09:15:52;;;;;;;;;;;;;;;28.25;25.69;97876.59;110402;1247;67813;-73
2022/07/17 09:18:21;;;;;;;;;;;;;;;28.13;25.36;97877.09;110167;1247;69513;-72
2022/07/17 09:20:53;;;;;;;;;;;;;;;26.90;25.30;97872.14;110305;1246;59825;-73
2022/07/17 09:23:24;;;;;;;;;;;;;;;27.16;25.21;97883.73;110530;1247;59732;-71
2022/07/17 09:25:54;;;;;;;;;;;;;;;27.81;24.84;97881.77;110267;1247;71636;-72
2022/07/17 09:28:24;;;;;;;;;;;;;;;28.13;23.96;97883.48;110287;1247;67851;-72
2022/07/17 09:30:54;;;;;;;;;;;;;;;28.04;23.19;97888.36;110388;1246;69752;-72
2022/07/17 09:33:24;;;;;;;;;;;;;;;27.71;24.16;97885.21;110194;1247;59773;-73
2022/07/17 09:35:55;;;;;;;;;;;;;;;27.37;25.20;97889.69;110257;1247;59721;-72
2022/07/17 09:38:34;;;;;;;;;;;;;;;28.01;24.68;97886.58;110248;1247;70751;-74
2022/07/17 09:41:11;;;;;;;;;;;;;;;27.26;23.32;97894.88;110204;1247;68621;-72
2022/07/17 09:43:44;;;;;;;;;;;;;;;27.55;23.74;97890.11;110402;1247;69449;-72
2022/07/17 09:46:20;;;;;;;;;;;;;;;27.55;23.48;97888.39;110191;1247;59751;-72
2022/07/17 09:48:52;;;;;;;;;;;;;;;27.64;23.67;97890.50;110491;1246;59747;-72
2022/07/17 09:51:25;;;;;;;;;;;;;;;27.23;22.80;97899.80;110357;1246;71147;-75
2022/07/17 09:53:55;;;;;;;;;;;;;;;27.45;22.81;97896.18;110493;1247;68803;-73
2022/07/17 09:56:26;;;;;;;;;;;;;;;27.95;22.98;97902.59;110031;1247;69454;-72
2022/07/17 09:59:03;;;;;;;;;;;;;;;28.00;22.85;97898.48;110378;1246;59692;-73
2022/07/17 10:01:32;;;;;;;;;;;;;;;28.44;23.54;97895.23;110331;1247;59700;-74
2022/07/17 10:04:03;;;;;;;;;;;;;;;28.74;22.47;97900.04;110259;1245;70762;-73
2022/07/17 10:06:32;;;;;;;;;;;;;;;29.00;21.94;97906.15;110597;1244;68653;-71
2022/07/17 10:09:02;;;;;;;;;;;;;;;29.03;21.97;97901.95;110244;1247;69191;-72
2022/07/17 10:11:33;;;;;;;;;;;;;;;29.15;22.15;97896.65;110539;1247;59648;-75
2022/07/17 10:14:05;;;;;;;;;;;;;;;29.04;21.51;97905.52;110221;1247;59732;-73
2022/07/17 10:16:36;;;;;;;;;;;;;;;28.92;21.93;97906.68;110405;1247;71273;-73
2022/07/17 10:19:16;;;;;;;;;;;;;;;28.96;21.49;97906.67;110299;1247;67851;-74
2022/07/17 10:21:56;;;;;;;;;;;;;;;28.92;22.03;97906.73;110383;1247;68637;-73
2022/07/17 10:24:29;;;;;;;;;;;;;;;28.82;21.89;97900.89;109994;1248;59688;-74
2022/07/17 10:26:58;;;;;;;;;;;;;;;28.77;22.28;97903.70;110192;1247;59679;-73
2022/07/17 10:29:30;;;;;;;;;;;;;;;28.49;22.96;97897.30;110471;1245;70749;-74
2022/07/17 10:32:00;;;;;;;;;;;;;;;28.36;23.21;97898.34;110540;1245;68516;-73
2022/07/17 10:34:41;;;;;;;;;;;;;;;28.24;23.72;97894.81;110541;1247;68657;-71
2022/07/17 10:37:14;;;;;;;;;;;;;;;27.85;24.18;97898.70;110383;1247;59764;-72
2022/07/17 10:40:02;;;;;;;;;;;;;;;27.66;24.14;97898.86;110396;1245;59645;-73
2022/07/17 10:42:38;;;;;;;;;;;;;;;27.45;23.85;97901.48;110421;1247;71729;-74
2022/07/17 10:45:11;;;;;;;;;;;;;;;27.33;23.98;97900.79;110281;1247;68618;-73
2022/07/17 10:47:50;;;;;;;;;;;;;;;26.64;24.63;97895.98;110423;1246;68526;-73
2022/07/17 10:50:22;;;;;;;;;;;;;;;26.74;24.82;97896.00;110312;1247;59708;-73
2022/07/17 10:53:01;;;;;;;;;;;;;;;26.09;25.02;97885.69;110315;1246;59747;-74
2022/07/17 10:55:30;;;;;;;;;;;;;;;26.63;23.91;97895.44;110185;1247;70852;-74
2022/07/17 10:57:59;;;;;;;;;;;;;;;26.81;22.91;97885.00;110188;1247;68633;-74
2022/07/17 11:00:28;;;;;;;;;;;;;;;26.99;23.22;97888.28;110318;1247;69562;-72
2022/07/17 11:03:07;;;;;;;;;;;;;;;27.02;23.29;97888.38;110274;1247;59756;-73
2022/07/17 11:05:36;;;;;;;;;;;;;;;27.09;23.13;97884.55;110182;1247;59750;-74
2022/07/17 11:08:09;;;;;;;;;;;;;;;27.22;23.30;97881.04;110227;1247;70750;-73
2022/07/17 11:10:38;;;;;;;;;;;;;;;27.09;22.96;97877.95;110338;1247;68566;-73
2022/07/17 11:13:14;;;;;;;;;;;;;;;27.08;23.57;97884.52;110481;1247;69608;-71
2022/07/17 11:15:45;;;;;;;;;;;;;;;27.27;22.69;97887.11;110437;1246;59688;-72
2022/07/17 11:18:21;;;;;;;;;;;;;;;27.21;22.17;97888.29;110509;1247;59675;-72
2022/07/17 11:20:50;;;;;;;;;;;;;;;27.48;22.18;97891.27;110558;1244;70756;-72
2022/07/17 11:23:20;;;;;;;;;;;;;;;27.65;22.08;97890.27;110182;1247;68040;-72
2022/07/17 11:25:57;;;;;;;;;;;;;;;27.77;21.89;97888.57;110243;1247;69481;-72
2022/07/17 11:28:27;;;;;;;;;;;;;;;27.67;21.28;97891.64;110361;1246;59751;-74
2022/07/17 11:30:56;;;;;;;;;;;;;;;27.83;20.96;97886.70;110472;1246;59673;-73
2022/07/17 11:33:25;;;;;;;;;;;;;;;27.95;22.10;97885.23;110145;1247;71579;-71
2022/07/17 11:35:54;;;;;;;;;;;;;;;28.25;20.91;97882.49;110332;1247;67856;-73
2022/07/17 11:38:24;;;;;;;;;;;;;;;28.20;20.19;97887.35;110280;1247;69521;-73
2022/07/17 11:40:53;;;;;;;;;;;;;;;28.40;20.55;97881.52;110494;1247;59750;-72
2022/07/17 11:43:38;;;;;;;;;;;;;;;28.45;20.65;97880.94;110509;1247;59683;-74
2022/07/17 11:46:08;;;;;;;;;;;;;;;28.37;20.18;97871.88;110372;1246;71562;-73
2022/07/17 11:48:40;;;;;;;;;;;;;;;28.12;20.32;97880.59;110394;1247;68090;-73
2022/07/17 11:51:08;;;;;;;;;;;;;;;27.89;20.65;97877.89;110222;1247;68985;-73
2022/07/17 11:53:38;;;;;;;;;;;;;;;27.78;20.02;97876.79;110475;1247;59703;-74
2022/07/17 11:56:08;;;;;;;;;;;;;;;27.62;20.97;97877.59;110263;1245;59692;-73
2022/07/17 11:58:44;;;;;;;;;;;;;;;27.42;21.44;97871.16;110497;1244;70986;-74
2022/07/17 12:01:13;;;;;;;;;;;;;;;27.38;21.59;97875.20;110421;1247;67984;-72
2022/07/17 12:03:42;;;;;;;;;;;;;;;27.30;21.36;97875.65;110510;1246;69444;-72
2022/07/17 12:06:11;;;;;;;;;;;;;;;27.33;20.96;97876.82;110216;1247;59684;-72
2022/07/17 12:08:50;;;;;;;;;;;;;;;27.34;20.95;97874.71;110476;1245;59694;-74
2022/07/17 12:11:19;;;;;;;;;;;;;;;27.30;20.50;97866.66;110367;1247;71880;-73
2022/07/17 12:13:48;;;;;;;;;;;;;;;27.10;20.25;97871.31;110167;1249;68122;-71
2022/07/17 12:16:20;;;;;;;;;;;;;;;27.13;20.85;97873.96;110019;1248;68670;-75
2022/07/17 12:18:56;;;;;;;;;;;;;;;27.06;20.56;97871.38;110249;1247;59720;-74
2022/07/17 12:21:25;;;;;;;;;;;;;;;27.13;20.00;97872.16;110200;1247;60027;-74
2022/07/17 12:23:59;;;;;;;;;;;;;;;27.08;19.91;97869.95;110304;1247;70794;-72
2022/07/17 12:26:28;;;;;;;;;;;;;;;26.91;19.94;97872.23;110218;1247;67901;-73
2022/07/17 12:28:57;;;;;;;;;;;;;;;26.96;20.11;97869.52;110548;1245;69514;-72
2022/07/17 12:31:29;;;;;;;;;;;;;;;27.05;19.93;97869.33;110469;1246;59760;-72
2022/07/17 12:33:58;;;;;;;;;;;;;;;27.02;19.37;97866.67;110200;1247;59727;-72
2022/07/17 12:36:26;;;;;;;;;;;;;;;27.09;19.33;97874.38;110166;1247;70499;-72
2022/07/17 12:38:55;;;;;;;;;;;;;;;27.13;18.99;97876.08;110534;1246;67930;-70
2022/07/17 12:41:24;;;;;;;;;;;;;;;27.17;18.93;97874.70;110290;1247;69435;-73
2022/07/17 12:43:53;;;;;;;;;;;;;;;27.16;18.66;97871.27;110474;1245;59750;-72
2022/07/17 12:46:22;;;;;;;;;;;;;;;27.06;18.19;97872.89;110238;1247;59652;-73
2022/07/17 12:48:50;;;;;;;;;;;;;;;26.33;17.78;97864.17;110517;1245;71512;-73
2022/07/17 12:51:19;;;;;;;;;;;;;;;26.52;18.98;97866.52;110337;1247;67789;-73